Time;durP1;ratioP1;P1;durP2;ratioP2;P2;SDS_P1;SDS_P2;PMS_P1;PMS_P2;Temp;Humidity;BMP_temperature;BMP_pressure;BME280_temperature;BME280_humidity;BME280_pressure;Samples;Min_cycle;Max_cycle;Signal;HPM_P1;HPM_P2
2022/07/29 00:04:20;;;;;;;1.00;0.80;;;19.40;74.40;;;;;;10555208;28;20028;-67
2022/07/29 00:09:20;;;;;;;1.70;0.68;;;19.40;74.40;;;;;;10544438;28;20370;-63
2022/07/29 00:14:21;;;;;;;0.95;0.80;;;19.40;74.40;;;;;;10549674;28;20034;-68
2022/07/29 00:19:22;;;;;;;1.52;0.70;;;19.40;74.50;;;;;;10540042;28;20492;-67
2022/07/29 00:24:22;;;;;;;1.50;0.90;;;19.40;74.50;;;;;;10539630;28;20498;-67
2022/07/29 00:29:23;;;;;;;1.17;0.80;;;19.40;74.50;;;;;;10542037;28;20035;-67
2022/07/29 00:39:43;;;;;;;0.60;0.60;;;19.30;74.50;;;;;;10554532;28;20072;-67
2022/07/29 00:44:44;;;;;;;1.60;0.75;;;19.30;74.50;;;;;;10550837;28;20031;-65
2022/07/29 00:49:45;;;;;;;3.03;0.82;;;19.20;74.50;;;;;;10540902;28;20391;-66
2022/07/29 00:54:45;;;;;;;0.73;0.70;;;19.30;74.60;;;;;;10552518;28;20035;-67
2022/07/29 00:59:46;;;;;;;2.00;0.70;;;19.30;74.60;;;;;;10542466;28;20032;-68
2022/07/29 01:04:47;;;;;;;0.70;0.70;;;19.30;74.60;;;;;;10541359;28;20036;-67
2022/07/29 01:09:48;;;;;;;2.65;1.00;;;19.20;74.60;;;;;;10544425;28;20032;-67
2022/07/29 01:14:50;;;;;;;0.98;0.75;;;19.20;74.60;;;;;;10548275;28;20472;-68
2022/07/29 01:19:57;;;;;;;1.00;0.75;;;19.20;74.70;;;;;;10551185;28;20090;-67
2022/07/29 01:25:19;;;;;;;3.07;0.80;;;19.20;74.70;;;;;;10544379;28;20395;-63
2022/07/29 01:30:24;;;;;;;0.63;0.63;;;19.20;74.80;;;;;;10538582;28;20031;-68
2022/07/29 01:35:39;;;;;;;0.95;0.80;;;19.20;74.80;;;;;;10538038;28;20032;-67
2022/07/29 01:40:46;;;;;;;1.23;0.80;;;19.10;74.80;;;;;;10544320;28;20012;-67
2022/07/29 01:45:52;;;;;;;1.10;0.80;;;19.10;74.80;;;;;;10534257;28;20464;-64
2022/07/29 01:51:07;;;;;;;0.73;0.73;;;19.20;74.90;;;;;;10545808;28;20400;-64
2022/07/29 01:56:10;;;;;;;2.78;1.20;;;19.10;75.00;;;;;;10542846;28;20026;-68
2022/07/29 02:01:12;;;;;;;1.60;0.80;;;19.10;74.90;;;;;;10537144;28;20023;-65
2022/07/29 02:06:18;;;;;;;0.80;0.80;;;19.10;75.00;;;;;;10533343;28;20020;-66
2022/07/29 02:11:19;;;;;;;0.93;0.80;;;19.10;75.00;;;;;;10537529;28;20093;-67
2022/07/29 02:16:22;;;;;;;1.38;0.82;;;19.00;74.90;;;;;;10536417;28;20370;-67
2022/07/29 02:21:27;;;;;;;1.13;0.80;;;19.00;75.00;;;;;;10551520;28;20028;-67
2022/07/29 02:26:30;;;;;;;1.98;1.15;;;19.00;75.00;;;;;;10546478;28;20625;-67
2022/07/29 02:31:34;;;;;;;1.20;0.85;;;19.00;75.00;;;;;;10540578;28;20067;-67
2022/07/29 02:36:36;;;;;;;0.98;0.88;;;19.00;75.00;;;;;;10533790;28;20640;-65
2022/07/29 02:41:59;;;;;;;2.30;0.73;;;19.00;75.00;;;;;;10551721;28;20020;-67
2022/07/29 02:47:35;;;;;;;1.20;0.77;;;19.00;75.20;;;;;;10551435;28;20020;-68
2022/07/29 02:52:44;;;;;;;1.52;1.02;;;19.00;75.20;;;;;;10534259;28;20135;-68
2022/07/29 02:57:57;;;;;;;1.20;0.80;;;19.00;75.20;;;;;;10548389;28;20498;-65
2022/07/29 03:03:03;;;;;;;1.05;0.85;;;18.90;75.10;;;;;;10545329;28;20069;-68
2022/07/29 03:08:09;;;;;;;0.80;0.80;;;18.90;75.10;;;;;;10537003;28;20077;-62
2022/07/29 03:13:10;;;;;;;1.10;1.00;;;18.90;75.10;;;;;;10536680;28;20525;-67
2022/07/29 03:18:11;;;;;;;1.67;1.00;;;18.90;75.70;;;;;;10546809;28;20044;-64
2022/07/29 03:23:17;;;;;;;1.08;0.85;;;18.90;75.20;;;;;;10555711;28;20042;-65
2022/07/29 03:28:19;;;;;;;1.05;0.80;;;18.90;75.30;;;;;;10540341;28;20024;-67
2022/07/29 03:33:20;;;;;;;1.30;0.80;;;18.90;75.30;;;;;;10542885;28;20047;-65
2022/07/29 03:38:26;;;;;;;1.65;0.90;;;18.80;75.30;;;;;;10550299;28;20027;-66
2022/07/29 03:43:31;;;;;;;1.33;1.02;;;18.80;75.30;;;;;;10553789;28;20039;-68
2022/07/29 03:48:35;;;;;;;1.00;0.80;;;18.80;75.30;;;;;;10525244;28;20027;-68
2022/07/29 03:53:36;;;;;;;1.58;1.48;;;18.80;75.40;;;;;;10548929;28;20035;-68
2022/07/29 03:58:38;;;;;;;1.58;0.80;;;18.80;75.40;;;;;;10538411;28;20080;-68
2022/07/29 04:03:39;;;;;;;1.30;1.05;;;18.70;75.40;;;;;;10544654;28;20027;-68
2022/07/29 04:08:39;;;;;;;1.00;0.75;;;18.70;75.40;;;;;;10549393;28;20504;-66
2022/07/29 04:13:40;;;;;;;2.58;1.10;;;18.80;75.50;;;;;;10546710;28;20032;-67
2022/07/29 04:18:41;;;;;;;1.30;0.77;;;18.70;75.40;;;;;;10547113;28;20429;-63
2022/07/29 04:23:44;;;;;;;2.22;0.95;;;18.70;75.50;;;;;;10549345;28;20512;-67
2022/07/29 04:28:46;;;;;;;1.73;1.05;;;18.70;75.50;;;;;;10550642;28;20063;-62
2022/07/29 04:33:46;;;;;;;2.22;0.90;;;18.70;75.60;;;;;;10544227;28;20043;-66
2022/07/29 04:38:48;;;;;;;2.03;0.90;;;18.70;75.60;;;;;;10516735;28;20557;-62
2022/07/29 04:43:49;;;;;;;1.60;0.93;;;18.60;75.60;;;;;;10467739;28;20101;-62
2022/07/29 04:48:50;;;;;;;1.80;0.73;;;18.70;75.70;;;;;;10497369;28;20379;-68
2022/07/29 04:53:50;;;;;;;1.38;0.70;;;18.70;75.70;;;;;;10487975;28;20044;-69
2022/07/29 04:58:51;;;;;;;1.00;0.85;;;18.60;75.70;;;;;;10500402;28;20225;-68
2022/07/29 05:03:52;;;;;;;2.38;1.00;;;18.60;75.70;;;;;;10499710;28;20142;-68
2022/07/29 05:08:53;;;;;;;1.42;0.80;;;18.60;75.70;;;;;;10502822;28;20556;-68
2022/07/29 05:13:53;;;;;;;1.77;1.10;;;18.60;75.70;;;;;;10486940;28;20051;-69
2022/07/29 05:18:54;;;;;;;0.70;0.68;;;18.60;75.70;;;;;;10492729;28;20055;-64
2022/07/29 05:23:55;;;;;;;3.47;0.80;;;18.60;75.70;;;;;;10485993;28;20042;-68
2022/07/29 05:28:56;;;;;;;1.50;1.00;;;18.60;75.70;;;;;;10488603;28;20043;-66
2022/07/29 05:33:58;;;;;;;1.80;1.20;;;18.60;75.70;;;;;;10485613;28;20043;-68
2022/07/29 05:38:59;;;;;;;1.60;1.00;;;18.60;75.70;;;;;;10478705;28;20036;-68
2022/07/29 05:44:00;;;;;;;1.98;1.15;;;18.60;76.30;;;;;;10479402;28;20384;-69
2022/07/29 05:49:02;;;;;;;1.25;0.80;;;18.60;75.70;;;;;;10472786;28;20123;-65
2022/07/29 05:54:03;;;;;;;1.50;0.93;;;18.70;75.70;;;;;;10474217;28;20631;-69
2022/07/29 05:59:04;;;;;;;3.40;1.10;;;18.70;75.70;;;;;;10473495;28;20150;-69
2022/07/29 06:04:06;;;;;;;1.48;0.98;;;18.70;75.70;;;;;;10474557;28;20031;-67
2022/07/29 06:09:07;;;;;;;0.95;0.80;;;18.70;75.70;;;;;;10468618;28;20471;-66
2022/07/29 06:19:18;;;;;;;2.25;1.13;;;18.70;75.70;;;;;;10863162;22;20054;-67
2022/07/29 06:24:19;;;;;;;2.45;0.93;;;18.70;75.80;;;;;;10552123;27;20036;-68
2022/07/29 06:29:20;;;;;;;0.80;0.80;;;18.70;75.70;;;;;;10558459;27;20042;-69
2022/07/29 06:34:22;;;;;;;1.70;1.00;;;18.70;75.80;;;;;;10551339;27;20035;-68
2022/07/29 06:39:23;;;;;;;2.78;1.10;;;18.70;75.80;;;;;;10553100;27;20015;-68
2022/07/29 06:44:24;;;;;;;1.48;0.82;;;18.70;75.80;;;;;;10559468;27;20121;-68
2022/07/29 06:49:26;;;;;;;0.90;0.80;;;18.70;75.90;;;;;;10563368;27;20027;-68
2022/07/29 06:54:27;;;;;;;2.15;1.13;;;18.70;76.00;;;;;;10558116;27;20047;-68
2022/07/29 06:59:28;;;;;;;1.50;0.80;;;18.30;75.70;;;;;;10560912;27;20063;-68
2022/07/29 07:04:29;;;;;;;1.30;0.90;;;18.70;75.90;;;;;;10536672;27;20023;-62
2022/07/29 07:09:29;;;;;;;1.50;1.00;;;18.70;76.00;;;;;;10560030;27;20030;-67
2022/07/29 07:14:30;;;;;;;1.10;0.90;;;18.70;76.00;;;;;;10558473;27;20030;-67
2022/07/29 07:19:31;;;;;;;1.55;1.00;;;18.70;76.00;;;;;;10553829;27;20196;-68
2022/07/29 07:24:32;;;;;;;1.23;1.00;;;18.60;76.00;;;;;;10553901;27;20595;-68
2022/07/29 07:29:32;;;;;;;1.40;0.82;;;18.60;76.00;;;;;;10550964;27;20200;-61
2022/07/29 07:34:33;;;;;;;2.50;1.00;;;18.70;76.10;;;;;;10560966;27;20828;-66
2022/07/29 07:39:34;;;;;;;2.47;1.00;;;18.70;76.10;;;;;;10568090;27;20019;-67
2022/07/29 07:44:35;;;;;;;1.70;1.00;;;18.70;76.20;;;;;;10569987;27;20030;-62
2022/07/29 07:49:35;;;;;;;1.23;0.93;;;18.70;76.20;;;;;;10572186;27;20146;-62
2022/07/29 07:54:36;;;;;;;1.58;1.10;;;18.70;76.30;;;;;;10561696;27;20035;-68
2022/07/29 07:59:37;;;;;;;2.53;1.17;;;18.70;76.20;;;;;;10562824;27;20037;-62
2022/07/29 08:04:40;;;;;;;2.30;1.10;;;18.70;76.30;;;;;;10565695;27;20098;-61
2022/07/29 08:09:41;;;;;;;1.20;0.98;;;18.70;76.30;;;;;;10568378;27;20508;-68
2022/07/29 08:14:42;;;;;;;1.77;1.00;;;18.80;76.40;;;;;;10561350;27;20034;-68
2022/07/29 08:19:42;;;;;;;1.02;0.90;;;18.80;76.40;;;;;;10564046;27;20119;-62
2022/07/29 08:24:43;;;;;;;1.75;1.00;;;18.90;76.40;;;;;;10569895;27;20498;-61
2022/07/29 08:29:44;;;;;;;1.10;1.00;;;18.90;76.40;;;;;;10562809;27;21720;-61
2022/07/29 08:34:46;;;;;;;2.47;0.93;;;18.90;76.30;;;;;;10553429;27;20564;-68
2022/07/29 08:39:47;;;;;;;0.85;0.80;;;18.90;76.40;;;;;;10563484;27;20027;-68
2022/07/29 08:44:48;;;;;;;1.95;1.00;;;19.00;76.40;;;;;;10558965;27;21016;-68
2022/07/29 08:49:49;;;;;;;0.77;0.70;;;19.00;76.40;;;;;;10551940;27;20039;-68
2022/07/29 08:54:52;;;;;;;1.27;0.90;;;19.00;76.50;;;;;;10549053;27;20108;-63
2022/07/29 08:59:54;;;;;;;1.80;1.10;;;19.00;76.40;;;;;;10551000;27;20042;-63
2022/07/29 09:04:58;;;;;;;1.05;0.80;;;19.00;77.10;;;;;;10551475;27;20492;-68
2022/07/29 09:10:01;;;;;;;2.47;0.95;;;19.10;76.50;;;;;;10547290;27;20629;-63
2022/07/29 09:15:02;;;;;;;3.00;1.10;;;19.10;76.50;;;;;;10544389;27;20094;-67
2022/07/29 09:20:19;;;;;;;1.38;0.80;;;19.10;76.50;;;;;;10552119;27;20037;-63
2022/07/29 09:25:32;;;;;;;1.08;0.90;;;19.10;76.60;;;;;;10552074;27;20058;-63
2022/07/29 09:30:33;;;;;;;1.90;1.17;;;19.20;76.70;;;;;;10530167;27;20046;-66
2022/07/29 09:35:34;;;;;;;2.13;1.00;;;19.20;76.40;;;;;;10547489;27;20050;-66
2022/07/29 09:40:35;;;;;;;1.70;0.70;;;19.20;76.40;;;;;;10550381;27;20027;-65
2022/07/29 09:45:37;;;;;;;1.73;1.05;;;19.30;76.40;;;;;;10551556;27;20375;-67
2022/07/29 09:50:43;;;;;;;2.00;0.95;;;19.30;76.30;;;;;;10546371;27;20046;-67
2022/07/29 09:55:50;;;;;;;2.00;1.08;;;19.30;76.30;;;;;;10545086;27;20642;-68
2022/07/29 10:00:52;;;;;;;1.00;0.75;;;19.00;76.30;;;;;;10548130;27;20292;-68
2022/07/29 10:06:10;;;;;;;1.60;1.05;;;19.30;76.30;;;;;;10556848;27;20532;-67
2022/07/29 10:11:12;;;;;;;1.27;1.00;;;19.40;76.50;;;;;;10559305;27;20115;-66
2022/07/29 10:16:14;;;;;;;6.72;1.90;;;19.40;76.40;;;;;;10562855;27;20043;-68
2022/07/29 10:21:15;;;;;;;3.33;1.90;;;19.40;76.80;;;;;;10554875;27;20035;-67
2022/07/29 10:26:16;;;;;;;6.45;2.30;;;19.40;77.60;;;;;;10564704;27;20023;-68
2022/07/29 10:31:40;;;;;;;6.18;2.40;;;19.40;78.70;;;;;;10566466;27;20031;-68
2022/07/29 10:36:49;;;;;;;3.38;2.28;;;19.30;79.90;;;;;;10550647;27;20503;-67
2022/07/29 10:42:03;;;;;;;6.93;2.80;;;19.40;79.40;;;;;;10563251;27;20449;-67
2022/07/29 10:47:03;;;;;;;7.05;2.30;;;19.40;79.50;;;;;;10550342;27;20019;-72
2022/07/29 10:52:06;;;;;;;4.05;2.40;;;19.50;79.80;;;;;;10538689;27;20093;-66
2022/07/29 10:57:30;;;;;;;3.85;2.40;;;19.50;79.90;;;;;;10543662;27;20027;-65
2022/07/29 11:02:35;;;;;;;4.63;2.10;;;19.70;80.20;;;;;;10550876;27;20396;-66
2022/07/29 11:07:38;;;;;;;4.50;2.47;;;19.70;79.90;;;;;;10542123;27;20528;-66
2022/07/29 11:12:38;;;;;;;6.03;2.35;;;19.80;79.90;;;;;;10547612;27;20100;-67
2022/07/29 11:17:58;;;;;;;4.25;1.80;;;19.90;79.70;;;;;;10553069;27;20530;-66
2022/07/29 11:22:59;;;;;;;7.63;2.53;;;19.90;80.50;;;;;;10542345;27;20039;-65
2022/07/29 11:28:12;;;;;;;3.80;2.88;;;20.10;79.80;;;;;;10549160;27;20154;-66
2022/07/29 11:33:29;;;;;;;5.97;2.20;;;20.40;80.20;;;;;;10545428;27;20169;-66
2022/07/29 11:38:30;;;;;;;4.25;2.28;;;20.50;79.80;;;;;;10543546;27;20031;-66
2022/07/29 11:43:51;;;;;;;4.68;2.65;;;20.40;78.50;;;;;;10554709;27;20556;-65
2022/07/29 11:48:51;;;;;;;4.65;2.38;;;20.70;79.20;;;;;;10552856;27;20083;-65
2022/07/29 11:53:53;;;;;;;8.23;2.55;;;20.90;78.30;;;;;;10547035;27;20541;-65
2022/07/29 11:59:04;;;;;;;6.35;2.60;;;20.90;78.40;;;;;;10551547;27;20033;-66
2022/07/29 12:04:06;;;;;;;4.10;2.80;;;21.00;78.60;;;;;;10552734;27;20465;-66
2022/07/29 12:09:09;;;;;;;5.90;2.30;;;21.10;78.20;;;;;;10546869;27;20079;-66
2022/07/29 12:14:28;;;;;;;3.83;2.15;;;21.20;78.10;;;;;;10553593;27;20049;-65
2022/07/29 12:19:28;;;;;;;;;;;21.30;79.10;;;;;;10557131;27;20869;-65
2022/07/29 12:24:43;;;;;;;5.32;2.70;;;21.60;79.20;;;;;;10561953;27;19907;-65
2022/07/29 12:29:45;;;;;;;5.22;3.00;;;21.80;77.80;;;;;;10540289;27;20027;-64
2022/07/29 12:34:46;;;;;;;4.20;2.88;;;21.90;77.40;;;;;;10551100;27;20837;-65
2022/07/29 12:39:47;;;;;;;4.90;2.42;;;22.00;77.40;;;;;;10550520;27;20318;-64
2022/07/29 12:44:51;;;;;;;4.03;2.25;;;22.00;77.20;;;;;;10565245;27;20181;-65
2022/07/29 12:50:11;;;;;;;3.65;2.40;;;22.00;77.50;;;;;;10557137;27;20153;-64
2022/07/29 12:55:12;;;;;;;4.53;2.25;;;22.00;77.20;;;;;;10557403;27;20035;-64
2022/07/29 13:00:14;;;;;;;4.80;2.90;;;22.00;77.40;;;;;;10556603;27;20119;-64
2022/07/29 13:05:15;;;;;;;7.18;3.25;;;22.00;77.50;;;;;;10540499;27;20027;-64
2022/07/29 13:10:18;;;;;;;4.18;2.33;;;22.20;77.40;;;;;;10545086;27;20038;-64
2022/07/29 13:15:19;;;;;;;2.38;1.83;;;22.40;77.20;;;;;;10551487;27;20053;-64
2022/07/29 13:20:24;;;;;;;5.32;1.88;;;22.60;76.00;;;;;;10538327;27;20034;-64
2022/07/29 13:25:30;;;;;;;4.75;2.35;;;22.60;75.20;;;;;;10535268;27;20499;-65
2022/07/29 13:30:30;;;;;;;5.40;2.42;;;22.80;75.30;;;;;;10554979;27;20505;-64
2022/07/29 13:35:31;;;;;;;5.15;2.72;;;23.10;75.20;;;;;;10550934;27;20292;-64
2022/07/29 13:40:35;;;;;;;4.50;2.85;;;23.40;74.80;;;;;;10565932;27;20291;-64
2022/07/29 13:45:35;;;;;;;5.05;3.35;;;23.60;74.40;;;;;;10550494;27;20449;-65
2022/07/29 13:50:36;;;;;;;3.92;2.80;;;23.60;73.90;;;;;;10550126;27;20517;-64
2022/07/29 13:55:37;;;;;;;9.48;3.45;;;23.80;74.20;;;;;;10553000;27;20448;-63
2022/07/29 14:00:38;;;;;;;4.55;2.78;;;24.00;73.80;;;;;;10562166;27;20027;-64
2022/07/29 14:05:38;;;;;;;4.18;3.00;;;24.10;73.30;;;;;;10548703;27;20403;-64
2022/07/29 14:10:39;;;;;;;3.30;2.28;;;24.30;72.80;;;;;;10559518;27;20030;-64
2022/07/29 14:15:40;;;;;;;4.57;2.83;;;24.70;72.60;;;;;;10563333;27;20066;-64
2022/07/29 14:20:41;;;;;;;4.43;2.75;;;24.60;72.40;;;;;;10555239;27;20035;-64
2022/07/29 14:25:42;;;;;;;4.55;2.80;;;24.70;71.90;;;;;;10561746;27;20227;-64
2022/07/29 14:30:42;;;;;;;3.85;2.40;;;24.90;72.10;;;;;;10558631;27;20286;-64
2022/07/29 14:35:44;;;;;;;4.10;2.90;;;25.10;71.60;;;;;;10560347;27;20019;-64
2022/07/29 14:40:46;;;;;;;3.72;2.10;;;25.10;71.40;;;;;;10567198;27;20295;-65
2022/07/29 14:45:47;;;;;;;4.15;2.58;;;25.30;70.90;;;;;;10562379;27;20147;-65
2022/07/29 14:50:47;;;;;;;8.60;2.20;;;25.30;70.00;;;;;;10554161;27;20075;-68
2022/07/29 14:55:49;;;;;;;2.40;1.70;;;25.40;69.40;;;;;;10564052;27;20062;-67
2022/07/29 15:00:49;;;;;;;2.85;1.50;;;25.30;69.80;;;;;;10569328;27;20531;-64
2022/07/29 15:05:51;;;;;;;2.42;1.70;;;25.20;70.20;;;;;;10570057;27;20033;-66
2022/07/29 15:10:52;;;;;;;2.20;1.75;;;25.10;70.70;;;;;;10573516;27;20114;-67
2022/07/29 15:15:52;;;;;;;4.97;1.67;;;25.00;70.90;;;;;;10571468;27;20383;-63
2022/07/29 15:20:53;;;;;;;3.25;1.80;;;25.00;71.10;;;;;;10571050;27;20097;-67
2022/07/29 15:25:54;;;;;;;3.22;1.70;;;25.00;71.30;;;;;;10568830;27;20780;-66
2022/07/29 15:30:55;;;;;;;3.40;1.48;;;25.00;71.60;;;;;;10563289;27;20093;-67
2022/07/29 15:35:56;;;;;;;2.25;1.35;;;25.00;71.60;;;;;;10559947;27;20087;-63
2022/07/29 15:40:56;;;;;;;3.90;1.75;;;25.00;71.60;;;;;;10565742;27;20359;-66
2022/07/29 15:51:16;;;;;;;1.85;1.40;;;25.20;71.80;;;;;;10570093;27;20493;-65
2022/07/29 15:56:17;;;;;;;3.33;1.33;;;25.20;71.90;;;;;;10565698;27;20083;-67
2022/07/29 16:01:18;;;;;;;2.40;1.45;;;25.20;71.90;;;;;;10540970;27;20023;-66
2022/07/29 16:06:19;;;;;;;3.22;1.70;;;25.30;72.00;;;;;;10562014;27;20031;-64
2022/07/29 16:11:19;;;;;;;2.20;1.35;;;25.30;72.00;;;;;;10546529;27;20358;-66
2022/07/29 16:16:20;;;;;;;1.73;1.40;;;25.30;72.20;;;;;;10567960;27;20141;-67
2022/07/29 16:21:24;;;;;;;2.88;1.30;;;25.20;72.50;;;;;;10555008;27;20495;-62
2022/07/29 16:26:25;;;;;;;6.53;2.30;;;25.10;72.60;;;;;;10555235;27;20476;-65
2022/07/29 16:36:36;;;;;;;8.45;2.38;;;24.70;70.50;;;;;;10634479;22;20333;-67
2022/07/29 16:41:37;;;;;;;3.85;1.90;;;24.40;70.20;;;;;;10548164;27;20545;-67
2022/07/29 16:46:38;;;;;;;3.85;2.10;;;24.20;70.30;;;;;;10543855;27;20118;-67
2022/07/29 16:51:39;;;;;;;5.95;2.22;;;24.10;71.00;;;;;;10556074;27;20842;-67
2022/07/29 16:56:39;;;;;;;5.32;2.00;;;24.00;70.90;;;;;;10541347;27;20532;-67
2022/07/29 17:01:40;;;;;;;4.18;2.30;;;23.70;71.20;;;;;;10564542;27;20022;-68
2022/07/29 17:06:41;;;;;;;3.17;2.22;;;23.80;71.50;;;;;;10569760;27;20027;-67
2022/07/29 17:11:42;;;;;;;8.77;2.30;;;23.80;71.00;;;;;;10553004;27;20042;-67
2022/07/29 17:16:43;;;;;;;3.08;1.98;;;23.60;71.20;;;;;;12211233;22;20058;-67
2022/07/29 17:21:44;;;;;;;4.47;1.90;;;23.60;70.90;;;;;;10509201;27;20031;-67
2022/07/29 17:26:45;;;;;;;6.88;2.25;;;23.60;71.30;;;;;;10501318;27;20927;-67
2022/07/29 17:31:46;;;;;;;6.80;2.35;;;23.60;71.70;;;;;;10502584;27;20027;-67
2022/07/29 17:36:47;;;;;;;4.35;1.90;;;23.70;71.90;;;;;;10527404;27;20295;-67
2022/07/29 17:41:48;;;;;;;3.85;2.05;;;23.50;72.80;;;;;;10506230;27;20147;-66
2022/07/29 17:46:49;;;;;;;9.85;3.42;;;23.40;72.20;;;;;;10511116;27;20598;-63
2022/07/29 17:51:49;;;;;;;17.83;4.22;;;23.30;72.20;;;;;;10499962;27;20315;-63
2022/07/29 17:56:50;;;;;;;7.25;2.53;;;23.30;72.50;;;;;;10524972;27;20027;-64
2022/07/29 18:01:51;;;;;;;7.75;2.83;;;23.20;72.90;;;;;;10500954;28;20042;-60
2022/07/29 18:06:52;;;;;;;5.35;2.10;;;23.20;73.10;;;;;;10497948;28;20046;-64
2022/07/29 18:11:53;;;;;;;3.10;2.10;;;23.10;73.20;;;;;;10506378;27;20318;-63
2022/07/29 18:16:54;;;;;;;4.28;2.35;;;23.10;73.40;;;;;;10477888;27;20551;-62
2022/07/29 18:21:54;;;;;;;3.08;2.08;;;23.10;73.50;;;;;;10501035;27;20125;-62
2022/07/29 18:26:55;;;;;;;5.18;2.08;;;23.00;73.80;;;;;;10509963;27;20883;-64
2022/07/29 18:31:58;;;;;;;3.97;1.80;;;23.00;74.30;;;;;;10504326;27;20042;-61
2022/07/29 18:36:59;;;;;;;3.42;2.17;;;22.90;74.70;;;;;;10514071;27;20035;-65
2022/07/29 18:42:00;;;;;;;4.22;2.20;;;22.90;74.90;;;;;;10512173;27;20086;-64
2022/07/29 18:47:02;;;;;;;3.60;2.08;;;22.80;75.10;;;;;;10504861;27;20147;-65
2022/07/29 18:52:03;;;;;;;5.55;2.40;;;22.70;75.50;;;;;;10502390;27;20545;-63
2022/07/29 18:57:04;;;;;;;6.65;2.25;;;22.70;76.10;;;;;;10511673;27;20026;-63
2022/07/29 19:02:04;;;;;;;3.60;2.15;;;22.60;76.70;;;;;;10522593;27;20031;-64
2022/07/29 19:07:05;;;;;;;3.22;2.10;;;22.50;76.90;;;;;;10518348;27;20245;-61
2022/07/29 19:12:06;;;;;;;6.38;2.22;;;22.40;77.20;;;;;;10506179;27;20144;-62
2022/07/29 19:17:07;;;;;;;8.35;2.60;;;22.30;77.40;;;;;;10523874;27;20433;-62
2022/07/29 19:22:08;;;;;;;6.78;2.33;;;22.20;77.80;;;;;;10517549;27;20231;-61
2022/07/29 19:27:08;;;;;;;3.83;2.20;;;22.10;78.20;;;;;;10491401;27;20020;-61
2022/07/29 19:32:09;;;;;;;4.88;2.47;;;22.10;78.40;;;;;;10517105;27;20198;-62
2022/07/29 19:37:10;;;;;;;3.53;2.22;;;22.20;78.20;;;;;;10499834;27;20042;-62
2022/07/29 19:42:11;;;;;;;5.45;2.63;;;22.30;78.00;;;;;;10524427;27;20048;-63
2022/07/29 19:47:12;;;;;;;2.50;1.80;;;22.40;77.90;;;;;;10521264;27;20023;-60
2022/07/29 19:52:13;;;;;;;4.50;2.35;;;22.40;77.80;;;;;;10503769;27;20469;-60
2022/07/29 19:57:13;;;;;;;5.88;2.20;;;22.40;77.70;;;;;;10504130;27;20035;-61
2022/07/29 20:02:14;;;;;;;3.38;2.38;;;22.40;77.70;;;;;;10488149;27;20020;-61
2022/07/29 20:07:15;;;;;;;3.03;1.92;;;22.40;77.80;;;;;;10573773;27;20046;-61
2022/07/29 20:12:16;;;;;;;2.47;2.00;;;22.40;77.80;;;;;;10603007;27;20039;-61
2022/07/29 20:17:23;;;;;;;4.65;2.10;;;22.40;77.80;;;;;;11124246;22;20055;-63
2022/07/29 20:22:24;;;;;;;3.47;2.00;;;22.40;77.90;;;;;;10554209;28;20020;-60
2022/07/29 20:27:25;;;;;;;5.07;2.35;;;22.40;77.90;;;;;;10558457;28;20509;-60
2022/07/29 20:32:25;;;;;;;3.03;2.15;;;22.40;78.00;;;;;;10552917;28;20457;-61
2022/07/29 20:37:26;;;;;;;3.97;2.10;;;22.30;78.00;;;;;;10564096;28;20473;-63
2022/07/29 20:42:27;;;;;;;4.53;2.45;;;22.30;78.00;;;;;;10564269;28;20019;-68
2022/07/29 20:47:28;;;;;;;3.40;2.40;;;22.30;78.10;;;;;;10562123;28;20119;-68
2022/07/29 20:52:29;;;;;;;2.83;2.00;;;22.30;78.10;;;;;;10559408;28;20040;-68
2022/07/29 20:57:29;;;;;;;3.08;2.30;;;22.20;78.10;;;;;;10547125;28;20390;-68
2022/07/29 21:02:30;;;;;;;2.55;2.13;;;22.20;78.20;;;;;;10564972;28;20550;-68
2022/07/29 21:07:31;;;;;;;3.80;2.47;;;22.20;78.30;;;;;;10560672;28;20020;-68
2022/07/29 21:12:32;;;;;;;2.88;2.53;;;22.10;78.30;;;;;;10553961;28;20070;-64
2022/07/29 21:17:34;;;;;;;3.20;2.10;;;22.10;78.40;;;;;;10550150;28;20044;-63
2022/07/29 21:22:35;;;;;;;4.28;2.35;;;22.10;78.50;;;;;;10560097;28;20020;-65
2022/07/29 21:32:56;;;;;;;3.78;2.42;;;22.00;78.70;;;;;;10546746;28;20594;-67
2022/07/29 21:37:57;;;;;;;4.28;2.88;;;22.00;78.80;;;;;;10556414;28;20078;-67
2022/07/29 21:42:58;;;;;;;3.53;2.22;;;22.00;78.90;;;;;;10539738;28;20027;-68
2022/07/29 21:47:58;;;;;;;3.50;2.40;;;21.90;79.00;;;;;;10545711;28;20016;-68
2022/07/29 21:52:59;;;;;;;3.80;2.40;;;21.90;79.00;;;;;;10550974;28;20490;-68
2022/07/29 21:58:00;;;;;;;4.63;2.58;;;21.90;79.20;;;;;;10550659;28;20021;-67
2022/07/29 22:03:03;;;;;;;3.72;2.75;;;21.80;79.20;;;;;;10557459;28;20063;-63
2022/07/29 22:08:04;;;;;;;4.93;2.67;;;21.80;79.40;;;;;;10558303;28;20030;-62
2022/07/29 22:13:05;;;;;;;4.15;2.65;;;21.80;79.50;;;;;;10559199;28;20058;-65
2022/07/29 22:18:06;;;;;;;3.63;2.53;;;21.80;79.60;;;;;;10567282;28;20047;-65
2022/07/29 22:23:06;;;;;;;4.32;2.63;;;21.70;79.70;;;;;;10562688;28;20497;-66
2022/07/29 22:28:07;;;;;;;2.88;2.58;;;21.70;80.40;;;;;;10565055;28;20022;-66
2022/07/29 22:33:08;;;;;;;5.18;2.65;;;21.70;79.90;;;;;;10548124;28;20069;-63
2022/07/29 22:38:08;;;;;;;3.42;2.78;;;21.60;80.00;;;;;;10554581;28;20084;-68
2022/07/29 22:43:09;;;;;;;3.83;2.70;;;21.60;80.10;;;;;;10525444;28;20048;-65
2022/07/29 22:48:10;;;;;;;4.20;2.58;;;21.60;80.20;;;;;;10549663;28;20028;-66
2022/07/29 22:53:10;;;;;;;4.28;2.90;;;21.60;80.30;;;;;;10551989;28;20038;-67
2022/07/29 22:58:11;;;;;;;4.32;3.15;;;21.50;80.30;;;;;;10543760;28;20035;-69
2022/07/29 23:03:12;;;;;;;5.50;2.80;;;21.50;80.40;;;;;;10547758;28;20035;-68
2022/07/29 23:08:13;;;;;;;2.80;2.33;;;21.50;80.50;;;;;;10563260;28;20032;-67
2022/07/29 23:13:13;;;;;;;3.90;2.80;;;21.40;80.60;;;;;;10569137;28;20034;-66
2022/07/29 23:18:15;;;;;;;4.15;3.20;;;21.40;80.60;;;;;;10569780;28;20036;-68
2022/07/29 23:23:15;;;;;;;4.35;2.95;;;21.40;80.80;;;;;;10561425;28;20066;-64
2022/07/29 23:28:16;;;;;;;5.18;3.05;;;21.40;80.80;;;;;;10567805;28;20455;-64
2022/07/29 23:33:17;;;;;;;3.47;2.92;;;21.30;80.90;;;;;;10530557;28;20508;-67
2022/07/29 23:38:17;;;;;;;7.78;2.67;;;21.30;80.90;;;;;;10545948;28;20069;-65
2022/07/29 23:43:18;;;;;;;3.10;2.55;;;21.30;81.00;;;;;;10550844;28;20390;-67
2022/07/29 23:48:19;;;;;;;3.40;2.30;;;21.20;81.00;;;;;;10565430;28;20039;-68
2022/07/29 23:53:21;;;;;;;6.03;2.67;;;21.20;81.00;;;;;;10564036;28;20036;-60
2022/07/29 23:58:22;;;;;;;5.97;2.97;;;21.20;81.30;;;;;;10561959;28;20085;-61
